Meath Environmental Platform

Observations for Trim Patrick St

Time AQI Temp °C Hum % Pres Pa CO μg/m³ H₂S μg/m³ NO μg/m³ NO₂ μg/m³ O₃ μg/m³ SO₂ μg/m³ PM1 μg/m³ PM2.5 μg/m³ PM10 μg/m³
Friday 7 August 2026
07:22 1 14.2 77 38,460 0.33 0 3.04 14.94 18.5 0 2.86 6.14 6.75
07:21 1 14.2 78 38,460 0.31 0 2.83 19.13 19.46 0 2.86 6.09 6.7
07:20 1 14.1 78 38,460 0.32 0 2.93 14.66 14.13 0 2.86 6.79 7.47
07:19 1 14.1 77 38,460 0.32 0.15 2.89 14.64 22.28 0 2 6.1 6.71
07:17 1 14.1 78 38,460 0.32 0.96 3.11 25 16.36 0 2.86 6.06 6.67
07:16 1 14.1 78 38,460 0.33 0 3.1 17.25 16.06 0 2.86 7.46 8.2
07:15 1 14 78 38,460 0.34 0 3.2 21.27 12.02 0 2 6.04 6.65
07:14 1 14 78 38,460 0.34 1.27 3 29.91 8.54 2.21 2.86 5.35 5.89
07:13 1 14 78 38,460 0.32 0 2.87 18.06 14.71 0 2.86 6.04 6.64
07:12 1 14 78 38,460 0.31 0 2.86 14.01 12.63 0 2 5.33 5.86
07:10 1 13.9 78 38,460 0.34 0.41 2.93 17.44 17.27 0 2.86 6.06 6.66
07:06 1 13.8 78 38,460 0.35 1.16 3.21 20.03 18.25 0 2 5.33 5.86
07:05 1 13.8 78 38,460 0.34 0.05 3.21 18.32 14.94 0 2 5.32 5.85
07:00 1 13.7 78 38,460 0.35 0.54 3.1 20.43 15.74 0 2 5.35 5.89
06:59 1 13.7 79 38,460 0.34 1.03 3.02 24.62 15.98 0 2 5.3 5.83
06:58 1 13.7 79 38,460 0.34 0 2.98 16.64 16.33 0 2 6 6.6
06:57 1 13.7 79 38,460 0.35 1.11 3.05 23.78 15.22 0 2 5.29 5.81
06:56 1 13.7 79 38,460 0.34 0 3.17 15.55 19.73 0 2 5.31 5.84
06:55 1 13.7 78 38,460 0.35 1.03 3.18 20.51 20.38 0 2.86 6.73 7.41
06:54 1 13.6 79 38,460 0.35 1.09 3.06 17.94 18.15 0 2 5.29 5.82